Time;durP1;ratioP1;P1;durP2;ratioP2;P2;SDS_P1;SDS_P2;PMS_P1;PMS_P2;Temp;Humidity;BMP_temperature;BMP_pressure;BME280_temperature;BME280_humidity;BME280_pressure;Samples;Min_cycle;Max_cycle;Signal;HPM_P1;HPM_P2
2022/10/06 00:01:16;;;;;;;4.82;3.20;;;16.40;99.90;;;;;;4998204;28;20033;-69
2022/10/06 00:03:42;;;;;;;5.13;3.53;;;16.30;99.90;;;;;;5010836;28;20026;-68
2022/10/06 00:06:10;;;;;;;5.93;3.50;;;16.40;99.90;;;;;;5004204;28;20527;-69
2022/10/06 00:08:38;;;;;;;4.80;3.40;;;16.40;99.90;;;;;;5013385;28;20111;-69
2022/10/06 00:11:04;;;;;;;5.05;3.50;;;16.40;99.90;;;;;;4999766;28;20026;-69
2022/10/06 00:13:31;;;;;;;5.20;3.42;;;16.40;99.90;;;;;;5010896;28;20033;-69
2022/10/06 00:15:57;;;;;;;3.78;3.05;;;16.40;99.90;;;;;;4993555;28;20033;-68
2022/10/06 00:18:22;;;;;;;3.83;3.03;;;16.40;99.90;;;;;;5011581;28;20034;-69
2022/10/06 00:20:55;;;;;;;6.60;3.78;;;16.30;99.90;;;;;;5002440;28;20461;-68
2022/10/06 00:23:21;;;;;;;5.00;3.17;;;16.40;99.90;;;;;;4993935;28;20030;-68
2022/10/06 00:25:48;;;;;;;4.53;3.33;;;16.40;99.90;;;;;;5003587;28;20030;-68
2022/10/06 00:28:14;;;;;;;5.88;3.85;;;16.40;99.90;;;;;;4993916;28;20033;-68
2022/10/06 00:30:39;;;;;;;4.82;3.33;;;16.40;99.90;;;;;;4997371;28;20034;-68
2022/10/06 00:33:05;;;;;;;4.07;3.15;;;16.40;99.90;;;;;;5005937;28;20072;-69
2022/10/06 00:35:33;;;;;;;4.72;3.42;;;16.30;99.90;;;;;;5000383;28;20110;-68
2022/10/06 00:38:00;;;;;;;4.70;3.28;;;16.30;99.90;;;;;;5006041;28;20026;-69
2022/10/06 00:40:26;;;;;;;4.22;3.35;;;16.40;99.90;;;;;;5010357;28;20044;-68
2022/10/06 00:42:57;;;;;;;4.47;3.15;;;16.40;99.90;;;;;;5004067;28;20603;-68
2022/10/06 00:45:38;;;;;;;4.50;3.85;;;16.40;99.90;;;;;;5001047;28;20036;-68
2022/10/06 00:48:17;;;;;;;7.78;3.67;;;16.40;99.90;;;;;;5011692;28;20026;-68
2022/10/06 00:50:43;;;;;;;4.38;3.25;;;16.50;99.90;;;;;;4996189;28;20054;-67
2022/10/06 00:53:10;;;;;;;4.20;3.30;;;16.50;99.90;;;;;;5002936;28;20085;-69
2022/10/06 00:55:35;;;;;;;4.35;3.20;;;16.50;99.90;;;;;;5004186;28;20046;-68
2022/10/06 00:58:04;;;;;;;5.32;3.50;;;16.60;99.90;;;;;;4996880;28;20123;-69
2022/10/06 01:00:31;;;;;;;4.32;3.33;;;16.60;99.90;;;;;;4988767;28;20052;-69
2022/10/06 01:03:10;;;;;;;7.55;3.47;;;16.70;99.90;;;;;;5005353;28;20034;-67
2022/10/06 01:05:42;;;;;;;4.70;3.33;;;16.70;99.90;;;;;;4996865;28;20041;-68
2022/10/06 01:08:08;;;;;;;4.03;3.05;;;16.80;99.90;;;;;;4995344;28;20033;-68
2022/10/06 01:10:34;;;;;;;5.97;3.50;;;16.80;99.90;;;;;;4990712;28;20025;-67
2022/10/06 01:13:00;;;;;;;5.70;3.20;;;16.90;99.90;;;;;;5011409;28;20496;-68
2022/10/06 01:15:27;;;;;;;3.58;3.00;;;16.90;99.90;;;;;;4987794;28;20469;-68
2022/10/06 01:18:12;;;;;;;6.72;3.75;;;17.00;99.90;;;;;;4985056;28;20034;-69
2022/10/06 01:20:48;;;;;;;5.20;3.50;;;17.00;99.90;;;;;;4987009;28;20185;-69
2022/10/06 01:23:14;;;;;;;4.25;3.17;;;17.10;99.90;;;;;;4999630;28;20050;-68
2022/10/06 01:25:40;;;;;;;5.45;3.28;;;17.10;99.90;;;;;;4998279;28;20109;-69
2022/10/06 01:28:08;;;;;;;4.13;3.20;;;17.10;99.90;;;;;;5006240;28;20117;-68
2022/10/06 01:30:51;;;;;;;3.38;2.85;;;17.20;99.90;;;;;;5005486;28;20100;-68
2022/10/06 01:33:21;;;;;;;4.80;3.10;;;17.20;99.90;;;;;;4994279;28;20136;-68
2022/10/06 01:35:49;;;;;;;5.53;3.33;;;17.20;99.90;;;;;;5009486;28;20393;-68
2022/10/06 01:38:16;;;;;;;4.22;3.17;;;17.30;99.90;;;;;;5007894;28;20038;-69
2022/10/06 01:40:43;;;;;;;4.55;3.35;;;17.30;99.90;;;;;;5002156;28;20022;-68
2022/10/06 01:43:08;;;;;;;3.53;2.75;;;17.30;99.90;;;;;;4992522;28;20043;-68
2022/10/06 01:45:34;;;;;;;4.30;3.50;;;17.30;99.90;;;;;;4998907;28;20026;-68
2022/10/06 01:48:00;;;;;;;4.22;3.08;;;17.40;99.90;;;;;;5012142;28;20034;-69
2022/10/06 01:50:25;;;;;;;4.53;2.90;;;17.40;99.90;;;;;;5004666;28;20022;-68
2022/10/06 01:52:54;;;;;;;3.70;2.92;;;17.40;99.90;;;;;;4992424;28;20038;-68
2022/10/06 01:55:20;;;;;;;3.53;2.80;;;17.40;99.90;;;;;;5000017;28;20497;-68
2022/10/06 01:57:46;;;;;;;4.82;3.08;;;17.40;99.90;;;;;;5005738;28;20045;-68
2022/10/06 02:00:12;;;;;;;4.72;3.38;;;17.30;99.90;;;;;;5000947;28;20033;-68
2022/10/06 02:02:37;;;;;;;5.10;3.50;;;17.30;99.90;;;;;;4991044;28;20070;-68
2022/10/06 02:05:03;;;;;;;6.00;2.92;;;17.30;99.90;;;;;;5003411;28;20152;-68
2022/10/06 02:07:29;;;;;;;4.32;2.90;;;17.30;99.90;;;;;;4999802;28;20378;-68
2022/10/06 02:09:54;;;;;;;4.75;3.28;;;17.30;99.90;;;;;;5007807;28;20104;-68
2022/10/06 02:12:20;;;;;;;3.92;3.10;;;17.30;99.90;;;;;;5003082;28;20473;-68
2022/10/06 02:14:45;;;;;;;4.40;3.20;;;17.20;99.90;;;;;;5003442;28;20429;-69
2022/10/06 02:17:11;;;;;;;4.25;3.13;;;17.30;99.90;;;;;;5003207;28;20038;-68
2022/10/06 02:19:37;;;;;;;6.00;3.60;;;17.20;99.90;;;;;;5006320;28;20057;-68
2022/10/06 02:22:03;;;;;;;4.47;3.47;;;17.20;99.90;;;;;;5001759;28;20038;-68
2022/10/06 02:24:29;;;;;;;4.95;3.50;;;17.20;99.90;;;;;;5001494;28;20042;-68
2022/10/06 02:26:55;;;;;;;6.40;3.97;;;17.10;99.90;;;;;;5014400;28;20056;-68
2022/10/06 02:29:20;;;;;;;4.35;3.50;;;17.10;99.90;;;;;;5014186;28;20354;-69
2022/10/06 02:31:48;;;;;;;4.63;3.40;;;17.10;99.90;;;;;;5006279;28;20540;-68
2022/10/06 02:34:14;;;;;;;3.90;3.17;;;17.10;99.90;;;;;;5015798;28;20116;-68
2022/10/06 02:36:39;;;;;;;5.05;3.53;;;17.00;99.90;;;;;;5011248;28;20164;-68
2022/10/06 02:39:05;;;;;;;6.35;3.63;;;17.00;99.90;;;;;;5014079;28;20025;-68
2022/10/06 02:41:31;;;;;;;4.43;3.55;;;17.00;99.90;;;;;;5004498;28;20113;-69
2022/10/06 02:43:57;;;;;;;4.78;3.50;;;17.00;99.90;;;;;;4995216;28;20025;-68
2022/10/06 02:46:23;;;;;;;5.50;3.58;;;17.00;99.90;;;;;;4983604;28;20026;-68
2022/10/06 02:48:49;;;;;;;5.93;3.42;;;17.00;99.90;;;;;;5004858;28;20641;-68
2022/10/06 02:51:16;;;;;;;4.30;3.33;;;17.00;99.90;;;;;;5003447;28;20030;-68
2022/10/06 02:53:44;;;;;;;6.53;3.75;;;17.00;99.90;;;;;;4997520;28;20042;-68
2022/10/06 02:56:16;;;;;;;7.45;4.13;;;16.90;99.90;;;;;;5005108;28;20527;-69
2022/10/06 02:58:43;;;;;;;4.90;3.88;;;17.00;99.90;;;;;;5014689;28;20095;-69
2022/10/06 03:01:22;;;;;;;5.15;3.42;;;17.00;99.90;;;;;;5013471;28;20026;-68
2022/10/06 03:03:48;;;;;;;7.65;3.85;;;17.00;99.90;;;;;;5007462;28;20464;-69
2022/10/06 03:06:23;;;;;;;6.88;4.25;;;16.90;99.90;;;;;;5003925;28;20049;-69
2022/10/06 03:09:04;;;;;;;5.22;4.15;;;16.90;99.90;;;;;;5001310;28;20030;-69
2022/10/06 03:11:36;;;;;;;4.95;3.85;;;16.90;99.90;;;;;;5009796;28;20432;-69
2022/10/06 03:14:03;;;;;;;6.95;3.83;;;16.90;99.90;;;;;;5012127;28;20041;-69
2022/10/06 03:16:33;;;;;;;5.18;3.60;;;16.90;99.90;;;;;;4997685;28;20034;-69
2022/10/06 03:19:00;;;;;;;6.10;3.60;;;17.00;99.90;;;;;;4996514;28;20030;-68
2022/10/06 03:21:28;;;;;;;4.00;3.53;;;17.00;99.90;;;;;;5005284;28;20031;-69
2022/10/06 03:23:56;;;;;;;5.93;3.65;;;17.00;99.90;;;;;;4981023;28;20032;-68
2022/10/06 03:26:26;;;;;;;4.45;3.55;;;17.00;99.90;;;;;;5003887;28;20041;-68
2022/10/06 03:28:51;;;;;;;5.30;4.22;;;17.00;99.90;;;;;;4999682;28;20624;-69
2022/10/06 03:31:17;;;;;;;4.50;3.72;;;17.00;99.90;;;;;;5004203;28;20026;-68
2022/10/06 03:33:43;;;;;;;5.78;3.70;;;17.10;99.90;;;;;;4984135;28;20034;-68
2022/10/06 03:36:11;;;;;;;4.72;3.63;;;17.10;99.90;;;;;;4995143;28;20073;-68
2022/10/06 03:38:37;;;;;;;7.25;3.70;;;17.10;99.90;;;;;;5000806;28;20085;-68
2022/10/06 03:41:15;;;;;;;6.88;3.47;;;17.10;99.90;;;;;;4995912;28;20485;-68
2022/10/06 03:43:43;;;;;;;6.47;3.50;;;17.20;99.90;;;;;;5000527;28;20022;-68
2022/10/06 03:46:12;;;;;;;4.70;3.38;;;17.20;99.90;;;;;;5005792;28;20525;-68
2022/10/06 03:48:38;;;;;;;4.60;3.22;;;17.20;99.90;;;;;;5000840;28;20120;-68
2022/10/06 03:51:12;;;;;;;5.07;3.60;;;17.20;99.90;;;;;;5007275;28;20126;-69
2022/10/06 03:53:39;;;;;;;4.32;3.25;;;17.30;99.90;;;;;;5004228;28;20060;-69
2022/10/06 03:56:07;;;;;;;4.45;3.38;;;17.30;99.90;;;;;;4998384;28;20568;-68
2022/10/06 03:58:36;;;;;;;5.32;3.10;;;17.30;99.90;;;;;;4997347;28;20038;-68
2022/10/06 04:01:04;;;;;;;7.20;3.55;;;17.30;99.90;;;;;;5008485;28;20018;-68
2022/10/06 04:03:31;;;;;;;5.95;3.13;;;17.30;99.90;;;;;;4994679;28;20113;-69
2022/10/06 04:05:59;;;;;;;3.85;2.40;;;17.30;99.90;;;;;;5013626;28;20033;-69
2022/10/06 04:08:26;;;;;;;2.90;2.30;;;17.30;99.90;;;;;;4995656;28;20104;-69
2022/10/06 04:10:51;;;;;;;3.35;2.58;;;17.30;99.90;;;;;;5003350;28;20026;-68
2022/10/06 04:13:19;;;;;;;3.00;2.42;;;17.40;99.90;;;;;;5010217;28;20632;-69
2022/10/06 04:15:45;;;;;;;3.72;2.60;;;17.40;99.90;;;;;;4995417;28;20047;-69
2022/10/06 04:18:12;;;;;;;4.45;2.70;;;17.40;99.90;;;;;;5003512;28;20034;-69
2022/10/06 04:20:38;;;;;;;6.22;2.80;;;17.40;99.90;;;;;;5009416;28;20034;-68
2022/10/06 04:23:04;;;;;;;5.75;2.55;;;17.40;99.90;;;;;;4998539;28;20837;-68
2022/10/06 04:25:30;;;;;;;3.45;2.30;;;17.40;99.90;;;;;;5004693;28;20061;-68
2022/10/06 04:27:56;;;;;;;5.95;2.70;;;17.50;99.90;;;;;;4995285;28;20029;-68
2022/10/06 04:30:23;;;;;;;3.55;2.40;;;17.40;99.90;;;;;;5006837;28;20060;-69
2022/10/06 04:32:48;;;;;;;4.00;3.08;;;17.50;99.90;;;;;;5004353;28;20550;-68
2022/10/06 04:35:15;;;;;;;4.07;2.35;;;17.50;99.90;;;;;;5009684;28;20033;-69
2022/10/06 04:37:45;;;;;;;2.35;1.73;;;17.50;99.90;;;;;;5006082;28;20099;-68
2022/10/06 04:40:11;;;;;;;3.13;1.75;;;17.50;99.90;;;;;;5008665;28;20126;-67
2022/10/06 04:42:37;;;;;;;2.88;1.73;;;17.50;99.70;;;;;;5007007;28;20037;-67
2022/10/06 04:45:03;;;;;;;3.53;1.70;;;17.50;99.40;;;;;;5005042;28;20097;-67
2022/10/06 04:47:29;;;;;;;4.13;1.90;;;17.50;99.10;;;;;;5000491;28;20478;-67
2022/10/06 04:49:54;;;;;;;2.22;1.40;;;17.50;98.90;;;;;;4994038;28;20033;-67
2022/10/06 04:52:21;;;;;;;2.30;1.75;;;17.50;98.60;;;;;;5009282;28;20432;-66
2022/10/06 04:54:47;;;;;;;4.72;2.33;;;17.50;98.50;;;;;;5008311;28;20030;-67
2022/10/06 04:57:12;;;;;;;4.72;1.50;;;17.50;98.30;;;;;;5015690;28;20092;-68
2022/10/06 05:02:23;;;;;;;2.72;1.33;;;17.50;98.10;;;;;;4998542;28;20041;-71
2022/10/06 05:04:49;;;;;;;4.07;1.45;;;17.50;98.00;;;;;;5003994;28;20032;-68
2022/10/06 05:07:14;;;;;;;3.88;1.40;;;17.50;97.90;;;;;;5009165;28;20061;-70
2022/10/06 05:09:41;;;;;;;3.72;1.65;;;17.50;97.70;;;;;;5003120;28;20023;-69
2022/10/06 05:12:09;;;;;;;3.13;1.35;;;17.50;97.60;;;;;;4995395;28;20030;-70
2022/10/06 05:14:35;;;;;;;1.73;1.30;;;17.40;97.50;;;;;;5006356;28;20117;-69
2022/10/06 05:17:01;;;;;;;1.95;1.20;;;17.50;97.50;;;;;;5005046;28;20025;-69
2022/10/06 05:19:27;;;;;;;2.40;1.40;;;17.40;97.40;;;;;;5002642;28;20026;-69
2022/10/06 05:21:52;;;;;;;1.90;1.33;;;17.40;97.30;;;;;;5007541;28;20346;-69
2022/10/06 05:24:19;;;;;;;1.55;1.23;;;17.40;97.20;;;;;;5010822;28;20048;-69
2022/10/06 05:26:44;;;;;;;2.22;1.60;;;17.40;97.00;;;;;;5025920;28;20081;-69
2022/10/06 05:29:11;;;;;;;1.65;1.13;;;17.40;96.90;;;;;;5007442;28;20057;-68
2022/10/06 05:31:37;;;;;;;3.40;1.88;;;17.40;96.80;;;;;;5010050;28;20021;-69
2022/10/06 05:34:03;;;;;;;1.73;1.30;;;17.30;96.70;;;;;;4998230;28;20037;-69
2022/10/06 05:36:32;;;;;;;1.73;1.30;;;17.30;96.70;;;;;;5009407;28;20050;-69
2022/10/06 05:38:59;;;;;;;2.63;1.00;;;17.30;96.80;;;;;;5003557;28;20034;-69
2022/10/06 05:41:29;;;;;;;2.95;2.08;;;17.30;96.80;;;;;;5011442;28;20018;-70
2022/10/06 05:43:57;;;;;;;2.65;1.40;;;17.30;96.90;;;;;;5003607;28;20026;-68
2022/10/06 05:46:27;;;;;;;3.70;1.50;;;17.30;97.00;;;;;;4994047;28;20508;-70
2022/10/06 05:48:57;;;;;;;2.15;1.52;;;17.30;96.90;;;;;;4992467;28;20546;-69
2022/10/06 05:51:28;;;;;;;3.88;1.45;;;17.30;96.70;;;;;;5010047;28;20044;-69
2022/10/06 05:53:54;;;;;;;2.47;1.25;;;17.20;96.60;;;;;;5005413;28;20037;-69
2022/10/06 05:56:22;;;;;;;1.77;1.10;;;17.20;96.50;;;;;;5009072;28;20107;-68
2022/10/06 05:58:51;;;;;;;1.63;0.98;;;17.20;96.40;;;;;;5002746;28;20508;-69
2022/10/06 06:01:18;;;;;;;1.38;1.00;;;17.20;96.30;;;;;;5000153;28;20039;-69
2022/10/06 06:03:48;;;;;;;1.17;0.80;;;17.10;96.30;;;;;;5009346;28;20033;-69
2022/10/06 06:06:22;;;;;;;2.30;1.10;;;17.10;96.10;;;;;;4996707;28;20042;-68
2022/10/06 06:08:56;;;;;;;3.03;1.15;;;17.10;96.00;;;;;;5003363;28;20109;-68
2022/10/06 06:11:26;;;;;;;2.03;1.20;;;17.00;95.90;;;;;;5015671;28;20034;-69
2022/10/06 06:14:04;;;;;;;5.00;1.10;;;17.00;95.90;;;;;;4995259;28;20331;-68
2022/10/06 06:16:31;;;;;;;2.08;1.10;;;16.90;95.80;;;;;;4999123;28;20041;-70
2022/10/06 06:18:57;;;;;;;1.98;1.30;;;16.90;95.80;;;;;;5011180;28;20034;-68
2022/10/06 06:21:24;;;;;;;2.70;0.90;;;16.80;95.80;;;;;;5004034;28;20031;-68
2022/10/06 06:23:49;;;;;;;4.60;1.05;;;16.80;95.80;;;;;;4999462;28;20031;-69
2022/10/06 06:26:29;;;;;;;0.88;0.80;;;16.80;95.70;;;;;;5007038;28;20026;-68
2022/10/06 06:29:04;;;;;;;2.97;1.00;;;16.80;95.80;;;;;;5011447;28;20109;-68
2022/10/06 06:31:32;;;;;;;2.88;0.90;;;16.70;95.70;;;;;;5002900;28;20112;-69
2022/10/06 06:34:00;;;;;;;1.33;0.90;;;16.70;95.80;;;;;;4992815;28;20044;-70
2022/10/06 06:36:36;;;;;;;3.80;1.17;;;16.60;95.80;;;;;;5008966;28;20030;-70
2022/10/06 06:39:04;;;;;;;4.18;1.30;;;16.60;95.80;;;;;;5014445;28;20064;-69
2022/10/06 06:41:38;;;;;;;2.42;1.17;;;16.60;95.90;;;;;;5006300;28;20500;-69
2022/10/06 06:44:06;;;;;;;4.25;1.40;;;16.60;95.80;;;;;;4982290;28;20065;-72
2022/10/06 06:46:33;;;;;;;2.35;1.10;;;16.50;95.80;;;;;;4984871;28;20038;-71
2022/10/06 06:49:03;;;;;;;1.70;1.02;;;16.50;95.90;;;;;;4996050;28;20452;-71
2022/10/06 06:51:30;;;;;;;2.75;0.80;;;16.50;95.90;;;;;;5004478;28;20038;-71
2022/10/06 06:53:58;;;;;;;2.47;1.20;;;16.50;96.00;;;;;;5000779;28;20114;-72
2022/10/06 06:56:23;;;;;;;5.95;1.38;;;16.50;96.00;;;;;;5011878;28;20085;-72
2022/10/06 06:58:50;;;;;;;2.35;1.10;;;16.50;96.30;;;;;;5020275;28;20052;-72
2022/10/06 07:01:18;;;;;;;4.07;1.15;;;16.50;96.20;;;;;;5027040;28;20049;-73
2022/10/06 07:03:50;;;;;;;2.90;1.25;;;16.50;96.20;;;;;;5007494;28;20026;-72
2022/10/06 07:06:16;;;;;;;1.63;1.30;;;16.50;96.10;;;;;;4994990;28;20030;-72
2022/10/06 07:08:44;;;;;;;2.65;1.10;;;16.60;96.20;;;;;;5002974;28;20030;-71
2022/10/06 07:11:30;;;;;;;2.45;1.50;;;16.60;96.10;;;;;;5013022;28;20116;-71
2022/10/06 07:14:07;;;;;;;5.10;1.30;;;16.60;96.20;;;;;;5002981;28;20038;-71
2022/10/06 07:25:06;;;;;;;5.20;1.48;;;16.60;96.30;;;;;;5007466;28;20068;-70
2022/10/06 07:27:44;;;;;;;2.75;1.23;;;16.60;96.40;;;;;;5006463;28;20030;-70
2022/10/06 07:30:17;;;;;;;3.65;1.15;;;16.60;96.30;;;;;;5010418;28;20037;-71
2022/10/06 07:32:48;;;;;;;3.38;1.10;;;16.60;96.40;;;;;;5000997;28;20034;-71
2022/10/06 07:35:15;;;;;;;3.85;1.23;;;16.60;96.50;;;;;;5006861;28;20030;-71
2022/10/06 07:37:41;;;;;;;2.03;1.15;;;16.60;96.50;;;;;;4995215;28;20037;-71
2022/10/06 07:40:08;;;;;;;1.98;1.10;;;16.60;96.50;;;;;;4995183;28;20034;-71
2022/10/06 07:42:47;;;;;;;1.73;1.00;;;16.60;96.50;;;;;;5008102;28;20441;-72
2022/10/06 07:46:00;;;;;;;3.78;1.20;;;16.60;96.50;;;;;;5004777;28;20073;-71
2022/10/06 07:48:13;;;;;;;5.15;1.38;;;16.60;96.50;;;;;;4995195;28;20099;-71
2022/10/06 07:50:39;;;;;;;2.53;1.40;;;16.60;96.50;;;;;;4994334;28;20038;-71
2022/10/06 07:53:07;;;;;;;4.65;1.38;;;16.80;96.50;;;;;;5006560;28;20060;-72
2022/10/06 07:55:35;;;;;;;5.13;1.17;;;16.80;96.50;;;;;;5013057;28;20050;-71
2022/10/06 07:58:01;;;;;;;2.92;1.30;;;16.90;96.50;;;;;;4992200;28;20037;-72
2022/10/06 08:00:27;;;;;;;2.60;1.58;;;17.00;96.40;;;;;;5012116;28;20022;-72
2022/10/06 08:02:56;;;;;;;2.97;1.30;;;17.00;96.30;;;;;;5003504;28;20145;-71
2022/10/06 08:05:21;;;;;;;3.03;1.30;;;17.00;96.20;;;;;;5010454;28;20662;-71
2022/10/06 08:07:47;;;;;;;3.33;1.35;;;17.10;96.20;;;;;;5009883;28;20026;-71
2022/10/06 08:10:12;;;;;;;2.25;1.10;;;17.20;95.80;;;;;;5013949;28;20026;-71
2022/10/06 08:12:39;;;;;;;2.75;1.70;;;17.20;95.60;;;;;;5015037;28;20069;-71
2022/10/06 08:15:10;;;;;;;3.50;1.40;;;17.20;95.60;;;;;;5013153;28;20038;-71
2022/10/06 08:17:36;;;;;;;8.43;1.45;;;17.20;95.40;;;;;;5006166;28;20104;-72
2022/10/06 08:20:04;;;;;;;2.25;1.10;;;17.20;95.10;;;;;;5008104;28;20037;-71
2022/10/06 08:22:30;;;;;;;2.83;1.27;;;17.20;95.20;;;;;;5001394;28;20038;-72
2022/10/06 08:24:59;;;;;;;2.72;1.15;;;17.30;95.20;;;;;;5005695;28;20037;-70
2022/10/06 08:27:27;;;;;;;9.05;2.13;;;17.40;95.00;;;;;;4994354;28;20034;-69
2022/10/06 08:29:53;;;;;;;5.28;1.30;;;17.40;94.80;;;;;;5012262;28;20030;-70
2022/10/06 08:32:20;;;;;;;3.58;1.30;;;17.40;94.70;;;;;;4986165;28;20136;-71
2022/10/06 08:34:49;;;;;;;8.80;1.95;;;17.40;94.40;;;;;;5003839;28;20018;-71
2022/10/06 08:37:22;;;;;;;2.75;1.30;;;17.40;94.60;;;;;;5001963;28;20378;-71
2022/10/06 08:39:49;;;;;;;4.20;1.75;;;17.40;94.40;;;;;;4995179;28;20376;-70
2022/10/06 08:42:38;;;;;;;3.13;1.20;;;17.40;94.10;;;;;;4993636;28;20037;-70
2022/10/06 08:45:13;;;;;;;4.53;1.23;;;17.50;94.00;;;;;;4997116;28;20022;-70
2022/10/06 08:47:52;;;;;;;5.95;1.42;;;17.60;93.80;;;;;;5001697;28;20034;-70
2022/10/06 08:50:20;;;;;;;7.50;2.38;;;17.60;93.60;;;;;;4987822;28;20501;-71
2022/10/06 08:52:49;;;;;;;4.55;1.80;;;17.60;93.40;;;;;;5005569;28;20049;-71
2022/10/06 08:55:28;;;;;;;7.85;2.05;;;17.60;93.30;;;;;;5011917;28;20103;-71
2022/10/06 08:58:00;;;;;;;3.42;1.30;;;17.70;92.80;;;;;;5010324;28;20291;-71
2022/10/06 09:00:31;;;;;;;3.22;1.30;;;17.70;92.70;;;;;;5002082;28;20473;-71
2022/10/06 09:02:59;;;;;;;5.78;1.65;;;17.70;92.60;;;;;;4997548;28;20137;-71
2022/10/06 09:05:28;;;;;;;6.50;2.20;;;17.70;92.40;;;;;;5020518;28;20537;-70
2022/10/06 09:08:21;;;;;;;7.35;2.85;;;17.80;92.10;;;;;;4998860;28;20030;-71
2022/10/06 09:11:14;;;;;;;7.57;1.50;;;17.80;91.90;;;;;;5001721;28;20540;-71
2022/10/06 09:13:53;;;;;;;2.47;1.40;;;17.70;91.70;;;;;;5001209;28;20044;-70
2022/10/06 09:16:27;;;;;;;2.90;1.40;;;17.80;91.70;;;;;;4987808;28;20037;-72
2022/10/06 09:19:27;;;;;;;5.97;1.80;;;17.70;91.60;;;;;;4996070;28;20042;-71
2022/10/06 09:21:54;;;;;;;4.43;1.58;;;17.70;91.40;;;;;;4992766;28;20533;-71
2022/10/06 09:24:54;;;;;;;6.60;1.88;;;17.70;91.40;;;;;;4992306;28;20036;-71
2022/10/06 09:27:31;;;;;;;4.53;1.63;;;17.70;91.40;;;;;;4960802;28;20493;-71
2022/10/06 09:29:58;;;;;;;4.28;1.40;;;17.70;91.20;;;;;;4994300;28;20041;-71
2022/10/06 09:32:27;;;;;;;6.10;1.88;;;17.70;91.10;;;;;;4992934;28;20542;-71
2022/10/06 09:35:01;;;;;;;4.22;1.52;;;17.70;91.00;;;;;;4980759;28;20038;-70
2022/10/06 09:37:27;;;;;;;6.70;2.63;;;17.80;91.10;;;;;;5006489;28;20033;-70
2022/10/06 09:39:54;;;;;;;5.00;1.65;;;17.80;91.00;;;;;;4995436;28;20038;-70
2022/10/06 09:42:29;;;;;;;6.05;1.40;;;17.80;90.80;;;;;;4992357;28;20027;-71
2022/10/06 09:45:22;;;;;;;4.68;1.63;;;17.80;90.60;;;;;;4999570;28;20060;-71
2022/10/06 09:47:49;;;;;;;4.32;2.08;;;17.80;90.50;;;;;;5001730;28;20169;-71
2022/10/06 09:50:26;;;;;;;3.53;1.20;;;17.80;90.50;;;;;;4993836;28;20031;-72
2022/10/06 09:52:59;;;;;;;2.58;1.25;;;17.90;90.40;;;;;;4998221;28;20042;-71
2022/10/06 09:55:36;;;;;;;3.60;1.63;;;17.90;90.30;;;;;;4994513;28;20367;-71
2022/10/06 09:58:17;;;;;;;4.53;1.75;;;18.00;90.40;;;;;;4992172;28;20030;-70
2022/10/06 10:00:55;;;;;;;5.88;1.80;;;18.10;90.50;;;;;;4994680;28;20031;-71
2022/10/06 10:03:24;;;;;;;5.03;1.52;;;18.10;90.50;;;;;;5008932;28;20096;-71
2022/10/06 10:05:53;;;;;;;9.93;2.10;;;18.10;90.30;;;;;;4994720;28;20034;-71
2022/10/06 10:08:29;;;;;;;4.70;1.70;;;18.10;90.00;;;;;;4992946;28;20030;-71
2022/10/06 10:11:07;;;;;;;4.57;1.63;;;18.10;89.90;;;;;;5005477;28;20037;-72
2022/10/06 10:13:42;;;;;;;6.18;1.80;;;18.10;89.30;;;;;;4992219;28;20382;-72
2022/10/06 10:16:15;;;;;;;5.15;1.85;;;18.00;89.00;;;;;;4992326;28;20482;-72
2022/10/06 10:18:45;;;;;;;11.63;3.03;;;18.00;88.90;;;;;;5006103;28;20060;-71
2022/10/06 10:21:32;;;;;;;6.00;1.45;;;18.00;89.20;;;;;;5007288;28;20033;-71
2022/10/06 10:24:02;;;;;;;4.10;1.80;;;18.00;88.40;;;;;;5008853;28;20706;-71
2022/10/06 10:27:03;;;;;;;5.75;1.80;;;18.00;88.30;;;;;;4996040;28;20385;-69
2022/10/06 10:29:44;;;;;;;7.15;1.98;;;18.00;89.00;;;;;;4993055;28;20109;-70
2022/10/06 10:32:14;;;;;;;4.65;1.60;;;18.00;89.00;;;;;;4992595;28;20081;-70
2022/10/06 10:34:42;;;;;;;3.50;1.88;;;18.00;89.30;;;;;;4994679;28;20061;-70
2022/10/06 10:37:12;;;;;;;9.60;2.72;;;18.00;89.50;;;;;;5009083;28;20033;-71
2022/10/06 10:39:53;;;;;;;4.47;1.50;;;18.10;89.80;;;;;;5010889;28;20525;-72
2022/10/06 10:42:34;;;;;;;6.03;1.50;;;18.10;90.00;;;;;;4995854;28;20038;-71
2022/10/06 10:45:05;;;;;;;5.03;1.73;;;18.20;89.60;;;;;;4995919;28;20034;-72
2022/10/06 10:47:37;;;;;;;4.93;1.83;;;18.20;89.10;;;;;;4995760;28;20033;-71
2022/10/06 10:50:25;;;;;;;3.90;1.40;;;18.30;88.80;;;;;;5000577;28;20026;-70
2022/10/06 10:53:01;;;;;;;5.72;1.80;;;18.30;88.70;;;;;;5004492;28;20037;-71
2022/10/06 10:55:33;;;;;;;6.95;1.45;;;18.40;88.80;;;;;;5013347;28;21140;-71
2022/10/06 10:58:10;;;;;;;3.42;1.88;;;18.50;87.50;;;;;;5006056;28;20040;-71
2022/10/06 11:00:41;;;;;;;6.90;2.13;;;18.40;87.80;;;;;;5000311;28;20027;-71
2022/10/06 11:03:09;;;;;;;5.57;1.58;;;18.50;87.00;;;;;;4996568;28;20034;-71
2022/10/06 11:06:00;;;;;;;5.25;1.40;;;18.50;87.20;;;;;;4994549;28;20030;-71
2022/10/06 11:08:31;;;;;;;5.60;1.60;;;18.50;86.80;;;;;;5015003;28;20030;-71
2022/10/06 11:11:04;;;;;;;6.95;1.88;;;18.50;86.70;;;;;;5006760;28;20080;-71
2022/10/06 11:13:51;;;;;;;3.55;1.73;;;18.50;86.90;;;;;;5010080;28;20042;-71
2022/10/06 11:16:37;;;;;;;7.00;1.50;;;18.60;86.60;;;;;;5008455;28;20097;-71
2022/10/06 11:19:13;;;;;;;2.63;1.55;;;18.60;86.30;;;;;;4996973;28;20109;-71
2022/10/06 11:21:50;;;;;;;4.50;1.50;;;18.60;86.20;;;;;;4995085;28;20059;-71
2022/10/06 11:24:38;;;;;;;3.60;1.40;;;18.60;85.90;;;;;;5003724;28;20034;-71
2022/10/06 11:27:10;;;;;;;4.50;1.88;;;18.60;85.90;;;;;;5001601;28;20080;-71
2022/10/06 11:29:58;;;;;;;5.32;1.70;;;18.60;86.00;;;;;;5009435;28;20057;-71
2022/10/06 11:32:43;;;;;;;5.05;2.05;;;18.60;85.80;;;;;;4994394;28;20073;-71
2022/10/06 11:35:26;;;;;;;6.85;1.88;;;18.70;86.30;;;;;;5011087;28;20542;-71
2022/10/06 11:38:02;;;;;;;4.43;1.60;;;18.80;86.30;;;;;;5013914;28;20026;-70
2022/10/06 11:40:49;;;;;;;6.65;2.13;;;18.90;85.80;;;;;;5014238;28;20124;-71
2022/10/06 11:43:48;;;;;;;5.68;2.03;;;19.00;85.60;;;;;;5014155;28;20026;-71
2022/10/06 11:46:27;;;;;;;3.80;1.60;;;19.00;85.60;;;;;;5009367;28;20033;-72
2022/10/06 11:49:12;;;;;;;5.85;1.60;;;19.10;84.60;;;;;;5014199;28;20034;-71
2022/10/06 11:51:38;;;;;;;3.42;1.73;;;19.10;84.20;;;;;;5014140;28;20057;-71
2022/10/06 11:54:34;;;;;;;3.65;1.45;;;19.10;84.50;;;;;;5013635;28;20477;-71
2022/10/06 11:57:00;;;;;;;7.28;1.70;;;19.20;84.60;;;;;;4993977;28;20441;-71
2022/10/06 11:59:29;;;;;;;8.05;1.73;;;19.20;84.70;;;;;;4994265;28;20026;-73
2022/10/06 12:01:55;;;;;;;3.10;1.40;;;19.20;83.80;;;;;;5006321;28;20080;-71
2022/10/06 12:04:21;;;;;;;4.60;1.73;;;19.20;83.50;;;;;;5013725;28;20034;-71
2022/10/06 12:06:55;;;;;;;4.70;1.50;;;19.20;84.10;;;;;;5013378;28;20022;-71
2022/10/06 12:09:42;;;;;;;4.95;1.65;;;19.20;82.70;;;;;;5013935;28;20036;-72
2022/10/06 12:12:14;;;;;;;3.45;1.90;;;19.10;82.60;;;;;;5005021;28;20038;-71
2022/10/06 12:14:55;;;;;;;3.53;1.50;;;19.20;82.60;;;;;;4994726;28;20357;-71
2022/10/06 12:17:25;;;;;;;5.80;2.30;;;19.20;81.90;;;;;;5004598;28;20030;-71
2022/10/06 12:20:10;;;;;;;4.28;1.58;;;19.10;82.20;;;;;;5002020;28;20110;-71
2022/10/06 12:22:52;;;;;;;6.93;2.13;;;19.20;82.40;;;;;;5003802;28;20042;-71
2022/10/06 12:25:33;;;;;;;4.43;1.88;;;19.20;82.10;;;;;;5005414;28;20452;-71
2022/10/06 12:28:50;;;;;;;5.47;2.08;;;19.30;82.30;;;;;;5006592;28;20034;-71
2022/10/06 12:31:43;;;;;;;3.17;1.40;;;19.30;82.20;;;;;;4933014;28;20126;-71
2022/10/06 12:34:53;;;;;;;4.13;1.55;;;19.30;81.80;;;;;;5005149;28;20108;-71
2022/10/06 12:37:51;;;;;;;4.18;1.52;;;19.40;81.50;;;;;;5009937;28;20044;-71
2022/10/06 12:40:54;;;;;;;3.88;1.58;;;19.40;81.50;;;;;;5006104;28;20041;-72
2022/10/06 12:43:22;;;;;;;5.60;1.90;;;19.40;81.30;;;;;;4995803;28;20041;-70
2022/10/06 12:45:54;;;;;;;4.50;1.38;;;19.40;80.60;;;;;;5001093;28;20057;-71
2022/10/06 12:48:25;;;;;;;4.05;1.50;;;19.50;80.80;;;;;;4992253;28;20121;-71
2022/10/06 12:51:18;;;;;;;2.97;1.30;;;19.50;80.10;;;;;;4998713;28;20022;-71
2022/10/06 12:54:08;;;;;;;3.55;1.60;;;19.50;79.70;;;;;;4991056;28;20053;-68
2022/10/06 12:56:37;;;;;;;4.85;1.75;;;19.50;80.20;;;;;;4993706;28;20049;-67
2022/10/06 12:59:22;;;;;;;5.30;1.48;;;19.40;78.50;;;;;;5001043;28;20033;-68
2022/10/06 13:01:57;;;;;;;4.05;1.45;;;19.40;78.30;;;;;;5001633;28;20062;-68
2022/10/06 13:04:37;;;;;;;2.58;1.13;;;19.40;78.10;;;;;;5010242;28;20045;-68
2022/10/06 13:07:19;;;;;;;5.00;1.63;;;19.40;78.40;;;;;;5005550;28;20029;-68
2022/10/06 13:09:47;;;;;;;3.67;1.52;;;19.40;79.10;;;;;;5009202;28;20090;-68
2022/10/06 13:12:20;;;;;;;3.25;1.23;;;19.40;79.20;;;;;;5011661;28;20104;-68
2022/10/06 13:14:47;;;;;;;3.22;1.30;;;19.50;79.40;;;;;;5012475;28;20033;-69
2022/10/06 13:17:13;;;;;;;4.82;1.52;;;19.50;79.40;;;;;;5013225;28;20117;-69
2022/10/06 13:19:45;;;;;;;3.90;1.40;;;19.60;79.10;;;;;;5011583;28;20037;-68
2022/10/06 13:22:14;;;;;;;8.48;2.15;;;19.60;79.10;;;;;;5020957;28;20072;-69